createdAt,value
2018-07-30T00:01:25.933Z,7.27
2018-07-30T00:03:58.516Z,8.93
2018-07-30T00:06:31.636Z,8.03
2018-07-30T00:09:05.797Z,8.13
2018-07-30T00:11:38.561Z,8.47
2018-07-30T00:14:11.820Z,9.17
2018-07-30T00:16:45.325Z,7.77
2018-07-30T00:19:19.908Z,8.07
2018-07-30T00:21:52.487Z,8.03
2018-07-30T00:24:25.900Z,8.90
2018-07-30T00:26:58.365Z,9.27
2018-07-30T00:29:40.419Z,8.97
2018-07-30T00:32:13.009Z,11.40
2018-07-30T00:34:46.135Z,14.80
2018-07-30T00:37:18.935Z,16.50
2018-07-30T00:39:51.566Z,14.73
2018-07-30T00:42:24.540Z,15.93
2018-07-30T00:44:57.112Z,18.53
2018-07-30T00:47:29.955Z,22.87
2018-07-30T00:50:11.269Z,24.97
2018-07-30T00:52:44.299Z,21.23
2018-07-30T00:55:17.075Z,22.07
2018-07-30T00:57:50.489Z,23.63
2018-07-30T01:00:24.284Z,21.77
2018-07-30T01:02:57.001Z,19.20
2018-07-30T01:05:31.138Z,15.40
2018-07-30T01:08:03.767Z,12.60
2018-07-30T01:10:37.299Z,13.30
2018-07-30T01:13:10.780Z,14.07
2018-07-30T01:15:43.633Z,8.70
2018-07-30T01:18:16.129Z,7.60
2018-07-30T01:20:50.974Z,7.57
2018-07-30T01:23:23.901Z,7.13
2018-07-30T01:25:56.659Z,7.40
2018-07-30T01:28:29.525Z,5.77
2018-07-30T01:31:02.862Z,6.90
2018-07-30T01:33:36.559Z,7.47
2018-07-30T01:36:08.333Z,6.77
2018-07-30T01:38:42.543Z,6.87
2018-07-30T01:41:16.185Z,6.63
2018-07-30T01:43:48.938Z,7.00
2018-07-30T01:46:22.674Z,7.90
2018-07-30T01:48:55.464Z,9.53
2018-07-30T01:51:28.157Z,9.07
2018-07-30T01:54:01.008Z,7.90
2018-07-30T01:56:32.678Z,8.37
2018-07-30T01:59:07.610Z,9.13
2018-07-30T02:01:39.269Z,9.57
2018-07-30T02:04:12.127Z,10.60
2018-07-30T02:06:45.306Z,9.43
2018-07-30T02:09:17.832Z,9.90
2018-07-30T02:11:51.972Z,10.17
2018-07-30T02:14:26.954Z,8.70
2018-07-30T02:16:59.834Z,9.37
2018-07-30T02:19:31.121Z,9.90
2018-07-30T02:22:03.879Z,8.40
2018-07-30T02:24:37.227Z,6.57
2018-07-30T02:27:12.647Z,7.80
2018-07-30T02:29:45.567Z,7.93
2018-07-30T02:32:26.711Z,7.37
2018-07-30T02:34:59.668Z,8.27
2018-07-30T02:37:32.467Z,7.83
2018-07-30T02:40:06.344Z,8.27
2018-07-30T02:42:39.645Z,7.23
2018-07-30T02:45:10.917Z,6.93
2018-07-30T02:47:43.072Z,8.03
2018-07-30T02:50:16.784Z,15.17
2018-07-30T02:52:50.619Z,16.03
2018-07-30T02:55:22.399Z,14.20
2018-07-30T02:57:54.101Z,15.17
2018-07-30T03:00:26.760Z,13.53
2018-07-30T03:02:59.752Z,13.43
2018-07-30T03:05:32.373Z,15.47
2018-07-30T03:08:04.259Z,14.57
2018-07-30T03:10:39.047Z,14.73
2018-07-30T03:13:18.859Z,14.17
2018-07-30T03:15:50.138Z,15.13
2018-07-30T03:18:23.372Z,14.10
2018-07-30T03:20:55.909Z,14.70
2018-07-30T03:23:28.670Z,14.93
2018-07-30T03:26:01.453Z,15.53
2018-07-30T03:28:34.496Z,14.17
2018-07-30T03:31:06.907Z,17.30
2018-07-30T03:33:40.899Z,14.90
2018-07-30T03:36:13.588Z,15.23
2018-07-30T03:38:46.296Z,15.73
2018-07-30T03:41:19.249Z,14.40
2018-07-30T03:43:50.486Z,14.90
2018-07-30T03:46:21.561Z,12.37
2018-07-30T03:48:52.702Z,12.60
2018-07-30T03:51:24.634Z,11.40
2018-07-30T03:54:05.904Z,10.67
2018-07-30T03:56:38.397Z,11.17
2018-07-30T03:59:11.260Z,9.93
2018-07-30T04:01:44.234Z,9.50
2018-07-30T04:04:15.654Z,8.57
2018-07-30T04:06:48.234Z,9.20
2018-07-30T04:09:21.315Z,11.03
2018-07-30T04:11:54.038Z,12.43
2018-07-30T04:14:26.914Z,13.30
2018-07-30T04:16:59.626Z,12.17
2018-07-30T04:19:31.861Z,12.63
2018-07-30T04:22:05.481Z,13.47
2018-07-30T04:24:38.759Z,14.73
2018-07-30T04:27:09.996Z,13.93
2018-07-30T04:29:42.774Z,15.80
2018-07-30T04:32:15.217Z,15.43
2018-07-30T04:34:48.119Z,16.50
2018-07-30T04:37:19.205Z,16.50
2018-07-30T04:39:52.319Z,16.83
2018-07-30T04:42:25.171Z,16.90
2018-07-30T04:44:58.072Z,19.13
2018-07-30T04:47:30.687Z,19.67
2018-07-30T04:50:03.516Z,19.63
2018-07-30T04:52:36.294Z,19.13
2018-07-30T04:55:10.535Z,18.93
2018-07-30T04:57:43.012Z,11.47
2018-07-30T05:00:15.643Z,6.43
2018-07-30T05:02:48.365Z,7.67
2018-07-30T05:05:20.922Z,7.33
2018-07-30T05:07:53.765Z,6.77
2018-07-30T05:10:26.594Z,6.40
2018-07-30T05:12:58.857Z,5.20
2018-07-30T05:15:35.620Z,5.57
2018-07-30T05:18:07.953Z,5.43
2018-07-30T05:20:40.479Z,5.53
2018-07-30T05:23:11.982Z,5.77
2018-07-30T05:25:44.469Z,5.40
2018-07-30T05:28:16.785Z,6.23
2018-07-30T05:30:48.074Z,5.97
2018-07-30T05:33:20.558Z,6.10
2018-07-30T05:35:54.465Z,6.03
2018-07-30T05:38:27.037Z,6.03
2018-07-30T05:40:59.726Z,5.00
2018-07-30T05:43:31.129Z,5.70
2018-07-30T05:46:03.697Z,5.20
2018-07-30T05:48:36.187Z,5.97
2018-07-30T05:51:08.713Z,5.40
2018-07-30T05:53:40.049Z,5.27
2018-07-30T05:58:49.796Z,4.73
2018-07-30T06:01:22.680Z,5.37
2018-07-30T06:03:53.820Z,5.50
2018-07-30T06:06:26.469Z,5.00
2018-07-30T06:08:58.859Z,5.17
2018-07-30T06:11:31.658Z,5.27
2018-07-30T06:14:03.773Z,5.33
2018-07-30T06:16:36.515Z,7.40
2018-07-30T06:19:08.802Z,5.87
2018-07-30T06:21:39.871Z,6.77
2018-07-30T06:24:12.149Z,5.90
2018-07-30T06:26:44.602Z,6.47
2018-07-30T06:29:16.852Z,5.73
2018-07-30T06:31:49.109Z,4.93
2018-07-30T06:34:21.347Z,5.17
2018-07-30T06:39:34.393Z,6.33
2018-07-30T06:42:06.856Z,5.93
2018-07-30T06:44:39.928Z,5.87
2018-07-30T06:47:11.126Z,5.97
2018-07-30T06:49:43.528Z,6.43
2018-07-30T06:52:16.384Z,6.13
2018-07-30T06:54:47.253Z,5.40
2018-07-30T06:57:18.443Z,5.63
2018-07-30T06:59:49.440Z,5.03
2018-07-30T07:02:20.552Z,5.30
2018-07-30T07:04:51.607Z,5.90
2018-07-30T07:07:22.639Z,5.50
2018-07-30T07:09:53.549Z,5.53
2018-07-30T07:12:24.624Z,5.17
2018-07-30T07:14:57.018Z,5.33
2018-07-30T07:18:05.383Z,5.83
2018-07-30T07:20:37.594Z,6.77
2018-07-30T07:23:08.851Z,7.87
2018-07-30T07:25:39.787Z,7.33
2018-07-30T07:28:12.248Z,6.43
2018-07-30T07:30:44.462Z,6.23
2018-07-30T07:33:16.630Z,6.23
2018-07-30T07:35:48.984Z,7.10
2018-07-30T07:38:24.572Z,6.50
2018-07-30T07:40:55.705Z,7.90
2018-07-30T07:43:26.829Z,6.90
2018-07-30T07:45:59.403Z,6.40
2018-07-30T07:48:31.699Z,6.37
2018-07-30T07:51:04.574Z,6.43
2018-07-30T07:53:36.946Z,7.40
2018-07-30T07:56:09.103Z,6.90
2018-07-30T07:58:44.075Z,8.07
2018-07-30T08:01:16.325Z,8.03
2018-07-30T08:03:48.454Z,8.60
2018-07-30T08:06:20.888Z,8.47
2018-07-30T08:08:53.550Z,8.30
2018-07-30T08:11:25.657Z,8.57
2018-07-30T08:13:58.047Z,9.17
2018-07-30T08:16:30.536Z,6.50
2018-07-30T08:19:03.687Z,6.03
2018-07-30T08:21:34.873Z,6.63
2018-07-30T08:24:07.330Z,5.53
2018-07-30T08:26:39.523Z,5.70
2018-07-30T08:29:10.614Z,5.73
2018-07-30T08:31:42.923Z,6.90
2018-07-30T08:34:15.180Z,8.33
2018-07-30T08:36:47.446Z,8.30
2018-07-30T08:39:19.932Z,7.40
2018-07-30T08:41:52.300Z,8.70
2018-07-30T08:44:24.814Z,7.07
2018-07-30T08:46:56.854Z,6.77
2018-07-30T08:49:29.185Z,7.50
2018-07-30T08:52:00.149Z,7.03
2018-07-30T08:54:32.680Z,8.03
2018-07-30T08:57:04.938Z,8.63
2018-07-30T08:59:37.325Z,8.57
2018-07-30T09:02:09.733Z,8.00
2018-07-30T09:04:41.932Z,9.53
2018-07-30T09:07:14.282Z,10.30
2018-07-30T09:09:46.696Z,9.70
2018-07-30T09:12:17.524Z,10.13
2018-07-30T09:14:49.746Z,11.03
2018-07-30T09:17:21.873Z,10.27
2018-07-30T09:20:03.535Z,10.43
2018-07-30T09:22:35.768Z,8.77
2018-07-30T09:25:08.430Z,9.40
2018-07-30T09:27:39.421Z,10.17
2018-07-30T09:30:11.749Z,9.87
2018-07-30T09:32:44.002Z,13.17
2018-07-30T09:35:16.404Z,12.07
2018-07-30T09:37:48.514Z,9.40
2018-07-30T09:40:22.035Z,10.03
2018-07-30T09:42:54.651Z,8.87
2018-07-30T09:45:27.391Z,12.30
2018-07-30T09:47:58.344Z,12.47
2018-07-30T09:50:30.780Z,11.57
2018-07-30T09:53:03.357Z,10.47
2018-07-30T09:55:35.790Z,13.90
2018-07-30T09:58:06.775Z,11.50
2018-07-30T10:00:51.439Z,10.20
2018-07-30T10:03:23.576Z,10.50
2018-07-30T10:05:55.857Z,11.87
2018-07-30T10:08:28.196Z,12.17
2018-07-30T10:11:00.462Z,12.03
2018-07-30T10:13:32.617Z,10.73
2018-07-30T10:16:05.151Z,12.13
2018-07-30T10:18:37.371Z,12.80
2018-07-30T10:21:11.323Z,13.00
2018-07-30T10:23:43.788Z,11.13
2018-07-30T10:26:16.081Z,11.00
2018-07-30T10:28:48.355Z,11.50
2018-07-30T10:31:20.774Z,10.10
2018-07-30T10:33:52.926Z,9.87
2018-07-30T10:36:25.168Z,10.23
2018-07-30T10:38:57.273Z,8.10
2018-07-30T10:41:31.255Z,6.40
2018-07-30T10:44:03.675Z,6.90
2018-07-30T10:46:36.065Z,6.50
2018-07-30T10:49:08.334Z,6.90
2018-07-30T10:51:40.684Z,8.93
2018-07-30T10:54:12.746Z,7.10
2018-07-30T10:56:45.224Z,6.73
2018-07-30T10:59:17.575Z,9.37
2018-07-30T11:01:50.174Z,8.47
2018-07-30T11:04:22.367Z,10.97
2018-07-30T11:06:54.631Z,9.80
2018-07-30T11:09:26.823Z,9.47
2018-07-30T11:11:59.033Z,10.13
2018-07-30T11:14:31.510Z,9.97
2018-07-30T11:17:04.168Z,9.73
2018-07-30T11:19:36.502Z,9.13
2018-07-30T11:22:09.411Z,10.20
2018-07-30T11:24:41.484Z,11.97
2018-07-30T11:27:14.056Z,13.00
2018-07-30T11:29:46.297Z,10.93
2018-07-30T11:32:18.464Z,10.23
2018-07-30T11:34:50.736Z,12.67
2018-07-30T11:37:23.018Z,11.63
2018-07-30T11:39:54.178Z,10.77
2018-07-30T11:42:25.442Z,11.00
2018-07-30T11:44:57.558Z,14.93
2018-07-30T11:47:29.885Z,17.70
2018-07-30T11:50:00.903Z,18.10
2018-07-30T11:52:34.824Z,19.50
2018-07-30T11:55:07.288Z,18.93
2018-07-30T11:57:38.841Z,15.33
2018-07-30T12:00:11.228Z,14.40
2018-07-30T12:02:43.928Z,13.33
2018-07-30T12:05:14.976Z,12.63
2018-07-30T12:07:48.846Z,13.77
2018-07-30T12:10:21.840Z,12.93
2018-07-30T12:12:57.092Z,11.00
2018-07-30T12:15:28.167Z,9.43
2018-07-30T12:18:00.704Z,8.77
2018-07-30T12:20:32.735Z,10.67
2018-07-30T12:23:04.451Z,11.23
2018-07-30T12:25:37.301Z,11.47
2018-07-30T12:28:10.036Z,13.03
2018-07-30T12:30:41.970Z,14.70
2018-07-30T12:33:13.986Z,13.03
2018-07-30T12:35:45.831Z,12.17
2018-07-30T12:38:17.023Z,11.67
2018-07-30T12:40:51.242Z,14.17
2018-07-30T12:43:24.628Z,11.47
2018-07-30T12:45:55.513Z,15.20
2018-07-30T12:48:27.819Z,13.83
2018-07-30T12:50:59.018Z,14.07
2018-07-30T12:56:30.952Z,10.33
2018-07-30T12:59:09.722Z,12.33
2018-07-30T13:01:44.909Z,10.53
2018-07-30T13:04:17.778Z,11.93
2018-07-30T13:06:51.038Z,9.30
2018-07-30T13:09:24.434Z,9.17
2018-07-30T13:11:57.701Z,10.07
2018-07-30T13:14:33.042Z,9.33
2018-07-30T13:17:06.042Z,11.70
2018-07-30T13:19:36.995Z,10.47
2018-07-30T13:22:10.710Z,13.87
2018-07-30T13:24:42.811Z,12.10
2018-07-30T13:27:17.717Z,18.23
2018-07-30T13:29:49.010Z,12.83
2018-07-30T13:32:29.800Z,8.90
2018-07-30T13:40:47.433Z,8.80
2018-07-30T13:43:35.298Z,10.47
2018-07-30T13:46:17.215Z,7.90
2018-07-30T13:48:58.759Z,9.60
2018-07-30T13:51:30.423Z,7.23
2018-07-30T13:54:04.321Z,8.40
2018-07-30T13:56:52.428Z,6.90
2018-07-30T14:02:36.267Z,9.37
2018-07-30T14:05:11.075Z,8.07
2018-07-30T14:07:47.665Z,10.60
2018-07-30T14:10:34.171Z,9.83
2018-07-30T14:13:17.704Z,6.30
2018-07-30T14:18:32.922Z,6.87
2018-07-30T14:21:06.241Z,6.63
2018-07-30T14:23:46.197Z,6.13
2018-07-30T14:26:23.794Z,6.17
2018-07-30T14:28:59.892Z,7.20
2018-07-30T14:31:32.255Z,8.43
2018-07-30T14:34:08.262Z,7.63
2018-07-30T14:36:42.427Z,7.53
2018-07-30T14:39:22.361Z,7.10
2018-07-30T14:41:55.094Z,8.67
2018-07-30T14:44:27.445Z,6.80
2018-07-30T14:47:04.443Z,7.63
2018-07-30T14:49:37.337Z,7.63
2018-07-30T14:52:27.239Z,5.63
2018-07-30T14:55:10.546Z,8.37
2018-07-30T14:57:45.593Z,6.10
2018-07-30T15:00:22.720Z,12.63
2018-07-30T15:02:58.794Z,8.70
2018-07-30T15:05:40.705Z,7.90
2018-07-30T15:08:12.658Z,11.50
2018-07-30T15:10:43.880Z,8.43
2018-07-30T15:13:15.317Z,7.50
2018-07-30T15:15:47.154Z,9.63
2018-07-30T15:18:28.369Z,9.07
2018-07-30T15:21:00.897Z,7.43
2018-07-30T15:23:43.960Z,7.27
2018-07-30T15:29:29.284Z,4.97
2018-07-30T15:32:02.107Z,4.43
2018-07-30T15:34:36.482Z,5.50
2018-07-30T15:37:10.017Z,22.07
2018-07-30T15:39:43.419Z,54.53
2018-07-30T15:42:15.730Z,6.70
2018-07-30T15:44:55.244Z,5.00
2018-07-30T15:47:27.813Z,5.67
2018-07-30T15:49:59.136Z,6.77
2018-07-30T15:52:32.766Z,5.97
2018-07-30T15:55:04.836Z,4.13
2018-07-30T15:57:41.948Z,3.90
2018-07-30T16:00:14.051Z,5.07
2018-07-30T16:02:46.549Z,3.70
2018-07-30T16:05:23.459Z,3.10
2018-07-30T16:07:54.551Z,4.80
2018-07-30T16:10:28.082Z,4.10
2018-07-30T16:13:04.076Z,6.47
2018-07-30T16:15:35.798Z,6.10
2018-07-30T16:18:09.271Z,6.00
2018-07-30T16:20:40.366Z,7.60
2018-07-30T16:23:11.554Z,7.83
2018-07-30T16:25:44.064Z,4.10
2018-07-30T16:28:27.402Z,8.90
2018-07-30T16:31:01.027Z,6.93
2018-07-30T16:33:33.246Z,6.40
2018-07-30T16:36:06.067Z,5.23
2018-07-30T16:38:39.621Z,10.77
2018-07-30T16:41:12.392Z,9.33
2018-07-30T16:43:48.124Z,8.63
2018-07-30T16:46:21.363Z,5.70
2018-07-30T16:48:55.783Z,5.90
2018-07-30T16:51:27.936Z,5.77
2018-07-30T16:54:00.083Z,6.40
2018-07-30T16:56:32.391Z,3.90
2018-07-30T16:59:08.612Z,5.83
2018-07-30T17:01:41.464Z,5.90
2018-07-30T17:04:13.089Z,7.73
2018-07-30T17:06:53.429Z,5.83
2018-07-30T17:15:15.595Z,5.22
2018-07-30T17:17:51.397Z,3.12
2018-07-30T17:20:28.366Z,5.55
2018-07-30T17:22:59.706Z,4.75
2018-07-30T17:25:35.596Z,4.40
2018-07-30T17:28:07.707Z,4.15
2018-07-30T17:30:44.257Z,5.45
2018-07-30T17:36:04.268Z,4.37
2018-07-30T17:38:37.612Z,5.03
2018-07-30T17:41:11.023Z,4.30
2018-07-30T17:43:53.974Z,5.95
2018-07-30T17:46:27.432Z,5.53
2018-07-30T17:48:59.912Z,6.22
2018-07-30T17:51:33.776Z,7.72
2018-07-30T17:54:11.327Z,5.78
2018-07-30T17:59:26.374Z,5.45
2018-07-30T18:02:03.549Z,5.55
2018-07-30T18:10:24.168Z,7.78
2018-07-30T18:12:59.257Z,4.15
2018-07-30T18:15:33.217Z,5.12
2018-07-30T18:18:06.712Z,4.05
2018-07-30T18:20:46.023Z,5.95
2018-07-30T18:23:19.648Z,4.58
2018-07-30T18:25:52.939Z,3.85
2018-07-30T18:28:25.225Z,4.87
2018-07-30T18:30:58.878Z,5.50
2018-07-30T18:33:32.800Z,5.07
2018-07-30T18:36:11.700Z,5.97
2018-07-30T18:38:55.332Z,5.90
2018-07-30T18:41:37.892Z,5.47
2018-07-30T18:46:08.800Z,4.65
2018-07-30T18:48:49.610Z,4.42
2018-07-30T18:51:22.656Z,6.25
2018-07-30T18:53:56.858Z,7.23
2018-07-30T18:59:12.509Z,7.17
2018-07-30T19:01:47.609Z,5.50
2018-07-30T19:04:24.278Z,5.20
2018-07-30T19:07:02.084Z,14.07
2018-07-30T19:09:42.760Z,5.83
2018-07-30T19:12:20.555Z,4.22
2018-07-30T19:14:54.879Z,5.05
2018-07-30T19:17:28.260Z,6.42
2018-07-30T19:20:09.261Z,8.43
2018-07-30T19:22:44.936Z,5.60
2018-07-30T19:25:20.341Z,4.90
2018-07-30T19:27:58.052Z,4.50
2018-07-30T19:30:30.524Z,4.23
2018-07-30T19:33:02.817Z,6.05
2018-07-30T19:35:36.031Z,5.53
2018-07-30T19:38:08.659Z,5.03
2018-07-30T19:40:51.889Z,4.67
2018-07-30T19:43:25.959Z,5.10
2018-07-30T19:46:01.118Z,4.78
2018-07-30T19:48:42.438Z,4.58
2018-07-30T19:51:17.601Z,5.50
2018-07-30T19:53:50.634Z,5.47
2018-07-30T19:56:24.493Z,5.83
2018-07-30T19:58:59.814Z,4.35
2018-07-30T20:01:34.030Z,4.80
2018-07-30T20:04:07.359Z,5.55
2018-07-30T20:06:42.137Z,9.93
2018-07-30T20:09:15.817Z,5.72
2018-07-30T20:11:51.857Z,3.90
2018-07-30T20:14:26.210Z,8.13
2018-07-30T20:16:59.085Z,5.03
2018-07-30T20:19:33.538Z,3.60
2018-07-30T20:22:06.683Z,4.47
2018-07-30T20:24:44.253Z,9.08
2018-07-30T20:27:18.745Z,7.43
2018-07-30T20:29:52.113Z,6.63
2018-07-30T20:32:33.136Z,8.53
2018-07-30T20:35:09.354Z,8.03
2018-07-30T20:40:29.621Z,5.70
2018-07-30T20:43:11.763Z,6.53
2018-07-30T20:45:46.925Z,5.95
2018-07-30T20:54:13.153Z,5.20
2018-07-30T21:05:13.027Z,5.90
2018-07-30T21:07:46.882Z,6.10
2018-07-30T21:10:26.464Z,5.97
2018-07-30T21:13:05.208Z,6.53
2018-07-30T21:22:00.840Z,5.90
2018-07-30T21:35:05.795Z,7.90
2018-07-30T21:37:44.257Z,8.40
2018-07-30T21:40:17.966Z,9.43
2018-07-30T21:42:50.368Z,9.60
2018-07-30T21:45:22.665Z,12.10
2018-07-30T21:47:55.895Z,12.63
2018-07-30T21:50:29.118Z,13.03
2018-07-30T21:53:07.174Z,13.63
2018-07-30T21:55:40.327Z,12.70
2018-07-30T21:58:14.752Z,15.93
2018-07-30T22:00:52.682Z,16.27
2018-07-30T22:03:25.966Z,14.50
2018-07-30T22:06:03.004Z,13.27
2018-07-30T22:08:36.082Z,15.20
2018-07-30T22:11:09.514Z,15.60
2018-07-30T22:13:41.991Z,16.23
2018-07-30T22:16:14.441Z,14.83
2018-07-30T22:18:48.159Z,11.83
2018-07-30T22:21:22.312Z,10.95
2018-07-30T22:24:07.089Z,15.83
2018-07-30T22:26:46.710Z,17.30
2018-07-30T22:29:24.329Z,14.90
2018-07-30T22:31:59.779Z,16.63
2018-07-30T22:34:32.816Z,20.07
2018-07-30T22:37:06.228Z,21.53
2018-07-30T22:39:43.103Z,19.57
2018-07-30T22:42:19.520Z,15.67
2018-07-30T22:44:57.446Z,15.57
2018-07-30T22:47:38.807Z,15.53
2018-07-30T22:50:12.135Z,20.10
2018-07-30T22:52:45.527Z,25.03
2018-07-30T22:55:25.882Z,18.20
2018-07-30T22:58:01.117Z,19.60
2018-07-30T23:00:33.968Z,12.77
2018-07-30T23:03:06.502Z,9.93
2018-07-30T23:05:40.400Z,11.37
2018-07-30T23:08:14.487Z,10.00
2018-07-30T23:10:48.318Z,8.87
2018-07-30T23:13:31.980Z,8.50
2018-07-30T23:16:04.820Z,11.63
2018-07-30T23:22:05.132Z,18.67
2018-07-30T23:24:39.426Z,17.87
2018-07-30T23:27:15.185Z,19.63
2018-07-30T23:45:12.593Z,39.23
2018-07-30T23:53:59.517Z,42.00
2018-07-30T23:56:33.146Z,40.90
2018-07-30T23:59:07.562Z,43.90
